Time;durP1;ratioP1;P1;durP2;ratioP2;P2;SDS_P1;SDS_P2;PMS_P1;PMS_P2;Temp;Humidity;BMP_temperature;BMP_pressure;BME280_temperature;BME280_humidity;BME280_pressure;Samples;Min_cycle;Max_cycle;Signal;HPM_P1;HPM_P2
2022/01/30 00:00:56;;;;;;;3.15;1.15;;;;;;;4.76;100.00;97132.25;4417978;32;20022;-75
2022/01/30 00:03:24;;;;;;;1.85;0.70;;;;;;;4.20;100.00;97135.34;4365560;32;20090;-74
2022/01/30 00:05:50;;;;;;;0.52;0.52;;;;;;;3.21;100.00;97172.69;4436538;32;20374;-75
2022/01/30 00:08:17;;;;;;;1.12;0.68;;;;;;;2.43;100.00;97082.37;4444761;32;20072;-74
2022/01/30 00:10:46;;;;;;;0.85;0.80;;;;;;;2.81;100.00;97144.53;4445567;32;20053;-74
2022/01/30 00:13:16;;;;;;;4.60;0.95;;;;;;;2.82;100.00;97094.81;4446773;32;20046;-74
2022/01/30 00:15:51;;;;;;;1.77;1.00;;;;;;;3.50;100.00;97153.88;4431765;32;20026;-75
2022/01/30 00:23:44;;;;;;;3.03;1.50;;;;;;;4.00;100.00;97131.47;4365771;32;20340;-76
2022/01/30 00:26:14;;;;;;;5.03;1.58;;;;;;;3.96;100.00;97146.31;4424802;32;20039;-74
2022/01/30 00:28:41;;;;;;;2.80;0.85;;;;;;;4.03;100.00;97161.28;4444005;32;20383;-75
2022/01/30 00:31:08;;;;;;;1.73;0.90;;;;;;;3.87;100.00;97185.09;4445770;32;20075;-74
2022/01/30 00:33:35;;;;;;;1.35;0.82;;;;;;;3.87;100.00;97153.16;4442636;32;20034;-77
2022/01/30 00:36:02;;;;;;;7.90;1.30;;;;;;;3.86;100.00;97164.88;4429310;32;20046;-74
2022/01/30 00:38:28;;;;;;;3.12;0.75;;;;;;;3.81;100.00;97196.75;4430023;32;20031;-75
2022/01/30 00:40:55;;;;;;;3.12;0.77;;;;;;;3.55;100.00;97135.28;4429613;32;20443;-75
2022/01/30 00:43:29;;;;;;;2.03;1.20;;;;;;;3.54;100.00;97208.22;4415268;32;20459;-75
2022/01/30 00:45:56;;;;;;;3.92;1.35;;;;;;;3.34;100.00;97144.13;4427055;32;20022;-75
2022/01/30 00:48:23;;;;;;;3.03;1.17;;;;;;;3.54;100.00;97258.78;4396322;32;20085;-74
2022/01/30 00:50:50;;;;;;;9.05;1.30;;;;;;;3.26;100.00;97154.12;4429866;32;20102;-75
2022/01/30 00:53:16;;;;;;;10.73;1.45;;;;;;;3.49;100.00;97167.41;4417250;32;20100;-74
2022/01/30 00:55:44;;;;;;;5.43;1.45;;;;;;;3.20;100.00;97143.69;4422102;32;20037;-77
2022/01/30 00:58:12;;;;;;;5.10;1.30;;;;;;;3.15;100.00;97179.00;4425903;32;20371;-74
2022/01/30 01:00:39;;;;;;;1.77;1.02;;;;;;;3.47;100.00;97196.13;4404442;32;20054;-75
2022/01/30 01:03:06;;;;;;;6.15;1.40;;;;;;;3.25;100.00;97199.59;4423590;32;20089;-75
2022/01/30 01:05:35;;;;;;;2.72;1.00;;;;;;;2.98;100.00;97204.81;4416270;32;20095;-74
2022/01/30 01:08:12;;;;;;;4.87;1.15;;;;;;;2.95;100.00;97136.19;4427213;32;20078;-76
2022/01/30 01:10:49;;;;;;;6.18;1.50;;;;;;;3.22;100.00;97160.19;4429604;32;20076;-74
2022/01/30 01:13:43;;;;;;;4.10;1.35;;;;;;;2.69;100.00;97093.34;4429397;32;20514;-75
2022/01/30 01:24:06;;;;;;;7.03;1.60;;;;;;;3.21;100.00;97204.59;4429600;32;20080;-74
2022/01/30 01:26:35;;;;;;;4.90;1.45;;;;;;;3.00;100.00;97133.59;4412271;32;20423;-73
2022/01/30 01:29:03;;;;;;;3.70;1.27;;;;;;;3.06;100.00;97127.28;4430336;32;20060;-77
2022/01/30 01:31:30;;;;;;;8.88;1.80;;;;;;;3.31;100.00;97160.56;4428375;32;20033;-73
2022/01/30 01:36:24;;;;;;;9.50;2.92;;;;;;;3.32;100.00;97156.84;4444878;32;20421;-73
2022/01/30 01:38:51;;;;;;;5.78;1.87;;;;;;;3.08;100.00;97104.72;4430437;32;20443;-74
2022/01/30 01:41:21;;;;;;;9.13;1.33;;;;;;;3.58;100.00;97157.94;4429286;32;20425;-76
2022/01/30 01:43:49;;;;;;;11.90;2.58;;;;;;;3.22;100.00;97115.78;4445391;32;20416;-74
2022/01/30 01:46:23;;;;;;;13.73;1.75;;;;;;;3.59;100.00;97123.09;4433182;32;20042;-74
2022/01/30 01:48:53;;;;;;;14.18;1.85;;;;;;;3.44;100.00;97149.53;4434628;32;20121;-74
2022/01/30 01:51:30;;;;;;;5.25;1.20;;;;;;;3.48;100.00;97161.31;4432220;32;20076;-73
2022/01/30 01:53:59;;;;;;;16.77;3.10;;;;;;;3.49;100.00;97114.19;4432684;32;20084;-73
2022/01/30 01:56:27;;;;;;;10.10;1.87;;;;;;;3.55;100.00;97108.66;4430783;32;20126;-74
2022/01/30 01:59:01;;;;;;;9.77;1.73;;;;;;;3.49;100.00;97108.88;4447204;32;20042;-76
2022/01/30 02:01:29;;;;;;;9.77;2.45;;;;;;;3.56;100.00;97154.72;4424677;32;20068;-74
2022/01/30 02:03:56;;;;;;;5.28;2.28;;;;;;;3.38;100.00;97060.91;4432571;32;20037;-73
2022/01/30 02:06:25;;;;;;;8.43;1.73;;;;;;;3.68;100.00;97085.38;4417589;32;20063;-74
2022/01/30 02:08:59;;;;;;;5.50;1.48;;;;;;;3.62;100.00;97056.06;4432928;32;20022;-74
2022/01/30 02:11:37;;;;;;;9.55;1.70;;;;;;;3.59;100.00;97077.03;4417752;32;20386;-74
2022/01/30 02:27:43;;;;;;;12.07;2.50;;;;;;;3.53;100.00;97022.97;4432612;32;20219;-74
2022/01/30 02:30:16;;;;;;;9.15;1.73;;;;;;;3.27;100.00;97097.22;4416004;32;20023;-75
2022/01/30 02:32:47;;;;;;;17.60;3.28;;;;;;;3.17;100.00;97030.59;4432039;32;20037;-74
2022/01/30 02:35:14;;;;;;;11.43;1.98;;;;;;;2.65;100.00;97004.53;4443640;32;20046;-74
2022/01/30 02:37:41;;;;;;;9.23;1.80;;;;;;;2.79;100.00;97095.31;4432641;32;20025;-75
2022/01/30 02:40:11;;;;;;;7.85;2.58;;;;;;;2.43;100.00;97103.63;4379619;32;20026;-74
2022/01/30 02:42:43;;;;;;;7.10;1.85;;;;;;;2.17;100.00;97023.59;4437900;32;20034;-74
2022/01/30 02:45:14;;;;;;;8.27;2.05;;;;;;;2.37;100.00;97081.50;4433286;32;20158;-76
2022/01/30 02:48:33;;;;;;;3.20;1.73;;;;;;;2.39;100.00;97065.31;4431194;32;20045;-77
2022/01/30 02:50:53;;;;;;;8.57;1.48;;;;;;;2.11;100.00;97026.44;4441299;32;20352;-74
2022/01/30 02:53:29;;;;;;;10.30;2.60;;;;;;;2.17;100.00;96986.44;4443782;32;20097;-75
2022/01/30 02:55:57;;;;;;;4.28;1.60;;;;;;;2.45;100.00;97027.13;4419061;32;20064;-74
2022/01/30 02:58:26;;;;;;;12.68;2.30;;;;;;;2.45;100.00;97031.66;4423314;32;20041;-74
2022/01/30 03:00:53;;;;;;;11.10;1.65;;;;;;;2.17;100.00;96983.78;4432425;32;20099;-76
2022/01/30 03:03:20;;;;;;;6.28;1.80;;;;;;;1.94;100.00;96986.62;4446188;32;20299;-75
2022/01/30 03:05:46;;;;;;;8.27;1.98;;;;;;;2.58;100.00;97073.00;4430652;32;20333;-74
2022/01/30 03:08:13;;;;;;;8.18;1.62;;;;;;;2.46;100.00;97038.59;4424285;32;20081;-75
2022/01/30 03:10:40;;;;;;;10.63;2.20;;;;;;;2.30;100.00;97008.38;4427791;32;20384;-75
2022/01/30 03:13:07;;;;;;;19.67;2.25;;;;;;;2.62;100.00;97052.88;4421457;32;20047;-75
2022/01/30 03:15:35;;;;;;;12.18;2.17;;;;;;;2.39;100.00;96984.84;4432892;32;20055;-75
2022/01/30 03:18:03;;;;;;;9.73;2.42;;;;;;;2.70;100.00;97047.91;4417138;32;20107;-74
2022/01/30 03:20:29;;;;;;;9.07;2.03;;;;;;;2.41;100.00;97026.03;4447295;32;20049;-74
2022/01/30 03:22:56;;;;;;;9.60;2.95;;;;;;;2.79;100.00;97026.22;4444964;32;20046;-77
2022/01/30 03:25:25;;;;;;;16.95;3.05;;;;;;;2.83;100.00;97060.03;4447168;32;20081;-73
2022/01/30 03:27:53;;;;;;;4.10;1.33;;;;;;;3.00;100.00;97035.22;4447651;32;20033;-74
2022/01/30 03:30:28;;;;;;;8.23;1.60;;;;;;;2.60;100.00;96964.62;4433435;32;20051;-74
2022/01/30 03:32:56;;;;;;;10.13;2.45;;;;;;;2.99;100.00;97057.56;4425637;32;20043;-75
2022/01/30 03:35:24;;;;;;;5.07;1.35;;;;;;;3.08;100.00;96997.56;4430779;32;20080;-74
2022/01/30 03:37:51;;;;;;;12.43;2.37;;;;;;;2.78;100.00;96976.78;4365895;32;20355;-73
2022/01/30 03:40:20;;;;;;;13.62;2.20;;;;;;;2.89;100.00;96976.63;4387814;32;20033;-74
2022/01/30 03:42:46;;;;;;;5.50;1.25;;;;;;;2.85;100.00;96975.50;4434366;32;20015;-75
2022/01/30 03:45:15;;;;;;;5.20;2.10;;;;;;;2.79;100.00;96984.50;4432340;32;20325;-74
2022/01/30 03:47:43;;;;;;;12.82;2.33;;;;;;;3.15;100.00;97040.69;4432401;32;20026;-74
2022/01/30 03:50:10;;;;;;;10.05;1.48;;;;;;;3.04;100.00;96975.19;4432857;32;20040;-74
2022/01/30 03:52:36;;;;;;;7.90;1.35;;;;;;;3.18;100.00;96981.69;4445997;32;20029;-74
2022/01/30 03:55:04;;;;;;;15.52;2.00;;;;;;;2.80;100.00;96996.72;4430605;32;20435;-75
2022/01/30 03:57:31;;;;;;;10.77;2.92;;;;;;;3.09;100.00;96977.88;4435507;32;20439;-72
2022/01/30 03:59:57;;;;;;;12.75;1.73;;;;;;;2.96;100.00;96946.41;4432210;32;20477;-73
2022/01/30 04:02:25;;;;;;;7.60;1.60;;;;;;;3.00;100.00;97001.47;4382341;32;20448;-73
2022/01/30 04:04:51;;;;;;;8.18;1.33;;;;;;;2.67;100.00;97029.81;4431959;32;20052;-74
2022/01/30 04:07:20;;;;;;;10.63;1.98;;;;;;;2.76;100.00;96985.00;4443713;32;20037;-74
2022/01/30 04:09:50;;;;;;;5.57;1.55;;;;;;;2.88;100.00;97012.22;4431139;32;20353;-74
2022/01/30 04:12:17;;;;;;;2.08;0.88;;;;;;;2.69;100.00;96981.72;4432279;32;20335;-73
2022/01/30 04:14:45;;;;;;;11.15;1.95;;;;;;;2.58;100.00;96990.63;4444071;32;20072;-74
2022/01/30 04:17:15;;;;;;;4.45;1.62;;;;;;;2.64;100.00;96960.41;4415157;32;20094;-75
2022/01/30 04:19:43;;;;;;;7.45;2.12;;;;;;;2.28;100.00;96930.78;4416784;32;20080;-73
2022/01/30 04:22:09;;;;;;;16.52;2.40;;;;;;;2.14;100.00;96936.47;4440397;32;20038;-74
2022/01/30 04:24:37;;;;;;;6.45;1.95;;;;;;;2.58;100.00;96966.72;4416226;32;20076;-74
2022/01/30 04:27:07;;;;;;;3.47;1.90;;;;;;;2.58;100.00;97030.50;4418316;32;20092;-73
2022/01/30 04:29:34;;;;;;;8.52;1.62;;;;;;;2.17;100.00;96973.16;4413989;32;20038;-74
2022/01/30 04:32:03;;;;;;;7.80;1.95;;;;;;;2.34;100.00;96983.69;4416148;32;20058;-73
2022/01/30 04:34:30;;;;;;;7.07;1.25;;;;;;;2.27;100.00;96926.53;4427559;32;20431;-73
2022/01/30 04:37:04;;;;;;;11.63;2.20;;;;;;;2.30;100.00;96976.50;4423086;32;20390;-74
2022/01/30 05:01:56;;;;;;;6.72;1.27;;;;;;;1.85;100.00;97027.91;4444915;32;20386;-74
2022/01/30 05:04:43;;;;;;;1.50;0.45;;;;;;;1.58;100.00;96964.88;4411034;32;20057;-74
2022/01/30 05:09:51;;;;;;;1.67;1.08;;;;;;;1.02;100.00;97002.69;4366845;32;20072;-73
2022/01/30 05:12:19;;;;;;;1.00;0.85;;;;;;;1.08;100.00;96938.09;4421778;32;20060;-74
2022/01/30 05:14:48;;;;;;;4.22;1.23;;;;;;;0.98;100.00;96977.69;4428094;32;20080;-74
2022/01/30 05:17:15;;;;;;;3.45;0.93;;;;;;;0.76;100.00;96871.59;4439520;32;20053;-74
2022/01/30 05:19:43;;;;;;;1.55;0.90;;;;;;;0.93;100.00;96915.88;4431201;32;20111;-74
2022/01/30 05:22:10;;;;;;;6.87;1.95;;;;;;;0.70;100.00;96854.84;4444415;32;20038;-74
2022/01/30 05:24:37;;;;;;;2.55;1.33;;;;;;;0.74;100.00;96859.66;4428831;32;20104;-74
2022/01/30 05:27:05;;;;;;;10.65;1.33;;;;;;;1.09;100.00;96902.62;4445475;32;20210;-74
2022/01/30 05:29:32;;;;;;;5.78;1.48;;;;;;;0.85;100.00;96846.31;4429602;32;20034;-74
2022/01/30 05:31:59;;;;;;;7.93;1.62;;;;;;;0.71;100.00;96851.13;4416202;32;20359;-74
2022/01/30 05:34:28;;;;;;;5.70;1.50;;;;;;;1.08;100.00;96871.84;4429694;32;20045;-74
2022/01/30 05:36:56;;;;;;;6.12;1.10;;;;;;;1.03;100.00;96924.78;4400921;32;20030;-74
2022/01/30 05:39:24;;;;;;;7.80;1.05;;;;;;;1.33;100.00;96883.09;4442935;32;20058;-73
2022/01/30 05:41:52;;;;;;;6.68;1.62;;;;;;;1.38;100.00;96901.72;4436495;32;20391;-73
2022/01/30 05:44:44;;;;;;;1.70;1.23;;;;;;;1.20;100.00;96905.44;4417234;32;20056;-75
2022/01/30 05:47:22;;;;;;;7.00;1.42;;;;;;;1.02;100.00;96846.34;4429894;32;20403;-74
2022/01/30 05:49:49;;;;;;;14.32;1.62;;;;;;;1.29;100.00;96868.72;4415677;32;20423;-74
2022/01/30 05:52:16;;;;;;;6.05;0.98;;;;;;;1.12;100.00;96823.66;4428890;32;20051;-76
2022/01/30 05:54:46;;;;;;;6.18;1.52;;;;;;;1.17;100.00;96842.31;4433037;32;20039;-74
2022/01/30 05:57:13;;;;;;;9.77;2.80;;;;;;;1.32;100.00;96826.59;4427993;32;20042;-73
2022/01/30 05:59:40;;;;;;;8.98;1.58;;;;;;;1.22;100.00;96845.03;4441957;32;20066;-75
2022/01/30 06:02:08;;;;;;;9.00;1.58;;;;;;;1.28;100.00;96812.25;4436641;32;20066;-72
2022/01/30 06:04:35;;;;;;;11.70;2.12;;;;;;;1.41;100.00;96827.78;4387620;32;20439;-72
2022/01/30 06:07:03;;;;;;;4.03;1.62;;;;;;;1.52;100.00;96839.34;4424978;32;20938;-73
2022/01/30 06:09:30;;;;;;;8.10;1.17;;;;;;;1.83;100.00;96871.56;4430823;32;20029;-72
2022/01/30 06:11:57;;;;;;;14.20;1.85;;;;;;;1.79;100.00;96850.03;4430931;32;20044;-73
2022/01/30 06:14:25;;;;;;;5.57;1.70;;;;;;;1.87;100.00;96874.53;4434903;32;20435;-76
2022/01/30 06:16:53;;;;;;;11.07;2.03;;;;;;;1.73;100.00;96808.56;4415370;32;20076;-73
2022/01/30 06:19:22;;;;;;;5.90;1.30;;;;;;;2.17;100.00;96855.50;4415783;32;20026;-74
2022/01/30 06:21:52;;;;;;;12.52;3.37;;;;;;;2.10;100.00;96876.16;4415290;32;20444;-74
2022/01/30 06:24:25;;;;;;;3.65;1.30;;;;;;;2.11;100.00;96889.19;4425531;32;20080;-75
2022/01/30 06:27:04;;;;;;;12.27;1.87;;;;;;;1.78;100.00;96811.28;4429126;32;20059;-73
2022/01/30 06:29:37;;;;;;;9.80;1.58;;;;;;;2.11;100.00;96812.19;4416507;32;20049;-74
2022/01/30 06:32:11;;;;;;;2.45;1.52;;;;;;;2.05;100.00;96858.31;4428268;32;20064;-77
2022/01/30 06:34:46;;;;;;;11.77;2.05;;;;;;;2.06;100.00;96841.34;4431529;32;20059;-74
2022/01/30 06:37:16;;;;;;;5.35;1.27;;;;;;;1.30;100.00;96778.31;4431586;32;20372;-76
2022/01/30 06:39:43;;;;;;;9.05;1.37;;;;;;;1.63;100.00;96866.81;4420452;32;20066;-79
2022/01/30 06:42:11;;;;;;;2.28;0.73;;;;;;;1.42;100.00;96840.00;4369279;32;20059;-75
2022/01/30 06:45:00;;;;;;;15.85;2.12;;;;;;;1.31;100.00;96875.37;4411483;32;20089;-74
2022/01/30 06:47:29;;;;;;;5.75;1.42;;;;;;;1.00;100.00;96737.09;4415239;32;20036;-77
2022/01/30 06:50:16;;;;;;;7.28;1.17;;;;;;;1.12;100.00;96765.34;4418923;32;20124;-75
2022/01/30 06:52:51;;;;;;;4.07;1.45;;;;;;;1.32;100.00;96709.94;4411910;32;20028;-75
2022/01/30 06:55:24;;;;;;;2.83;1.20;;;;;;;1.75;100.00;96779.94;4420704;32;20127;-75
2022/01/30 06:57:55;;;;;;;6.30;1.40;;;;;;;1.81;100.00;96821.41;4417240;32;20038;-75
2022/01/30 07:00:26;;;;;;;6.85;1.50;;;;;;;2.03;100.00;96812.63;4407866;32;20072;-74
2022/01/30 07:03:04;;;;;;;4.95;1.85;;;;;;;1.86;100.00;96689.84;4399066;32;20373;-78
2022/01/30 07:05:31;;;;;;;12.48;1.80;;;;;;;2.12;100.00;96829.72;4399906;32;20703;-75
2022/01/30 07:08:00;;;;;;;12.57;1.98;;;;;;;1.87;100.00;96710.00;4395939;32;20038;-75
2022/01/30 07:10:26;;;;;;;11.05;2.00;;;;;;;2.16;100.00;96780.38;4399771;32;20031;-76
2022/01/30 07:12:53;;;;;;;9.25;1.90;;;;;;;1.84;100.00;96718.47;4420612;32;20085;-79
2022/01/30 07:15:20;;;;;;;10.85;1.95;;;;;;;1.74;100.00;96714.66;4377549;32;20063;-74
2022/01/30 07:17:47;;;;;;;15.60;2.00;;;;;;;2.05;100.00;96746.81;4400276;32;20043;-75
2022/01/30 07:20:15;;;;;;;10.20;2.50;;;;;;;1.97;100.00;96766.63;4412496;32;20090;-74
2022/01/30 07:22:42;;;;;;;9.90;3.40;;;;;;;1.91;100.00;96753.56;4422396;32;20088;-78
2022/01/30 07:25:09;;;;;;;5.28;2.22;;;;;;;1.34;100.00;96652.19;4413984;32;20059;-74
2022/01/30 07:27:37;;;;;;;7.28;2.03;;;;;;;1.91;100.00;96751.72;4421415;32;20091;-76
2022/01/30 07:30:06;;;;;;;21.17;1.77;;;;;;;1.93;100.00;96778.81;4417634;32;20045;-74
2022/01/30 07:32:33;;;;;;;11.02;2.85;;;;;;;1.57;100.00;96708.66;4418029;32;20632;-75
2022/01/30 07:35:00;;;;;;;8.80;1.83;;;;;;;1.72;100.00;96838.78;4417903;32;20421;-79
2022/01/30 07:37:29;;;;;;;5.28;1.40;;;;;;;1.77;100.00;96783.16;4413125;32;20071;-75
2022/01/30 07:39:59;;;;;;;11.38;2.12;;;;;;;1.66;100.00;96757.56;4430625;32;20087;-75
2022/01/30 07:42:26;;;;;;;21.45;2.72;;;;;;;1.58;100.00;96731.44;4401354;32;20105;-75
2022/01/30 07:44:56;;;;;;;11.90;2.00;;;;;;;1.66;100.00;96802.66;4415879;32;20045;-75
2022/01/30 07:47:23;;;;;;;8.20;2.33;;;;;;;1.40;100.00;96826.19;4410408;32;20073;-74
2022/01/30 07:49:52;;;;;;;8.65;1.90;;;;;;;1.17;100.00;96805.19;4398701;32;20074;-74
2022/01/30 07:52:20;;;;;;;9.32;1.55;;;;;;;1.10;100.00;96736.44;4402789;32;20038;-75
2022/01/30 07:54:47;;;;;;;13.50;1.85;;;;;;;1.30;100.00;96799.53;4397944;32;20045;-75
2022/01/30 07:57:14;;;;;;;12.05;2.47;;;;;;;1.35;100.00;96781.03;4416401;32;20094;-74
2022/01/30 07:59:41;;;;;;;10.63;1.98;;;;;;;1.35;100.00;96748.44;4408488;32;20047;-74
2022/01/30 08:02:08;;;;;;;15.07;2.40;;;;;;;1.13;100.00;96756.34;4417146;32;20511;-73
2022/01/30 08:04:35;;;;;;;8.07;1.70;;;;;;;1.48;100.00;96821.50;4416753;32;20034;-74
2022/01/30 08:07:02;;;;;;;8.13;1.80;;;;;;;1.43;100.00;96785.91;4423405;32;20375;-78
2022/01/30 08:09:29;;;;;;;11.65;2.58;;;;;;;1.44;100.00;96768.97;4414605;32;20475;-75
2022/01/30 08:11:56;;;;;;;13.13;1.98;;;;;;;1.26;100.00;96809.00;4407974;32;20072;-74
2022/01/30 08:14:23;;;;;;;6.55;1.90;;;;;;;0.66;100.00;96813.97;4431286;32;20119;-73
2022/01/30 08:16:50;;;;;;;19.42;3.70;;;;;;;0.59;100.00;96741.81;4410086;32;20056;-76
2022/01/30 08:19:19;;;;;;;3.03;1.25;;;;;;;0.79;100.00;96820.00;4444536;32;20059;-73
2022/01/30 08:21:47;;;;;;;8.70;1.87;;;;;;;0.64;100.00;96786.91;4432126;32;20030;-73
2022/01/30 08:24:14;;;;;;;17.60;2.78;;;;;;;0.74;100.00;96831.31;4445452;32;20134;-73
2022/01/30 08:26:42;;;;;;;7.28;2.00;;;;;;;0.63;100.00;96843.56;4430179;32;20037;-77
2022/01/30 08:29:08;;;;;;;10.30;1.60;;;;;;;0.49;100.00;96818.44;4390920;32;20050;-75
2022/01/30 08:31:34;;;;;;;11.35;1.40;;;;;;;0.40;100.00;96817.22;4406201;32;20075;-74
2022/01/30 08:34:02;;;;;;;4.40;1.70;;;;;;;0.25;100.00;96821.19;4431455;32;20170;-75
2022/01/30 08:36:28;;;;;;;8.10;1.17;;;;;;;-0.03;100.00;96777.84;4431069;32;20038;-75
2022/01/30 08:38:55;;;;;;;3.85;1.12;;;;;;;0.24;100.00;96851.38;4431163;32;20042;-74
2022/01/30 08:41:22;;;;;;;6.22;1.42;;;;;;;0.23;100.00;96839.19;4428081;32;20029;-73
2022/01/30 08:43:48;;;;;;;3.15;1.12;;;;;;;0.24;100.00;96853.19;4417756;32;20064;-73
2022/01/30 08:46:15;;;;;;;5.45;1.20;;;;;;;-0.02;100.00;96781.28;4416567;32;20035;-73
2022/01/30 08:48:42;;;;;;;2.47;1.00;;;;;;;0.03;100.00;96817.63;4432053;32;20046;-72
2022/01/30 08:51:10;;;;;;;2.15;1.30;;;;;;;0.24;100.00;96789.69;4409018;32;20038;-75
2022/01/30 08:53:37;;;;;;;3.45;1.02;;;;;;;0.41;100.00;96800.31;4427602;32;20046;-72
2022/01/30 08:56:04;;;;;;;4.22;1.37;;;;;;;0.31;100.00;96814.97;4406972;32;20059;-72
2022/01/30 08:58:32;;;;;;;3.75;1.20;;;;;;;0.28;100.00;96862.28;4416898;32;20060;-73
2022/01/30 09:00:59;;;;;;;3.30;0.95;;;;;;;0.44;100.00;96871.31;4431318;32;20064;-72
2022/01/30 09:03:26;;;;;;;1.35;0.88;;;;;;;0.36;100.00;96883.87;4426190;32;20066;-71
2022/01/30 09:05:52;;;;;;;3.22;1.25;;;;;;;0.20;100.00;96874.06;4430432;32;20050;-72
2022/01/30 09:08:19;;;;;;;2.30;1.10;;;;;;;0.40;100.00;96870.16;4430080;32;20087;-71
2022/01/30 09:10:46;;;;;;;2.40;1.33;;;;;;;0.21;100.00;96854.50;4430609;32;20042;-72
2022/01/30 09:13:12;;;;;;;9.82;1.55;;;;;;;0.50;100.00;96843.88;4427567;32;20041;-73
2022/01/30 09:15:41;;;;;;;4.25;1.45;;;;;;;0.31;100.00;96867.13;4429358;32;20050;-72
2022/01/30 09:18:11;;;;;;;3.30;1.37;;;;;;;0.74;100.00;96889.59;4431570;32;20079;-72
2022/01/30 09:20:39;;;;;;;3.17;1.65;;;;;;;0.51;100.00;96879.91;4398204;32;20084;-73
2022/01/30 09:23:06;;;;;;;4.90;1.62;;;;;;;0.93;100.00;96862.88;4417016;32;20047;-71
2022/01/30 09:25:34;;;;;;;5.53;1.25;;;;;;;1.09;100.00;96886.72;4422526;32;20042;-73
2022/01/30 09:28:02;;;;;;;3.30;1.20;;;;;;;1.17;100.00;96863.50;4416189;32;20121;-71
2022/01/30 09:30:29;;;;;;;3.22;0.98;;;;;;;1.30;100.00;96871.13;4412487;32;20102;-72
2022/01/30 09:32:56;;;;;;;1.45;0.88;;;;;;;1.11;100.00;96816.75;4393988;32;20196;-73
2022/01/30 09:35:23;;;;;;;3.35;1.05;;;;;;;1.11;100.00;96853.87;4407162;32;20090;-75
2022/01/30 09:37:50;;;;;;;3.60;0.95;;;;;;;1.27;100.00;96868.97;4397325;32;20089;-73
2022/01/30 09:40:19;;;;;;;3.70;1.05;;;;;;;1.24;100.00;96858.84;4422762;32;20081;-72
2022/01/30 09:42:49;;;;;;;7.30;1.55;;;;;;;1.36;100.00;96856.91;4413223;32;20387;-73
2022/01/30 09:45:24;;;;;;;5.35;1.92;;;;;;;1.20;100.00;96847.13;4395130;32;20414;-75
2022/01/30 09:47:59;;;;;;;8.43;1.52;;;;;;;1.43;100.00;96881.38;4425282;32;20920;-71
2022/01/30 09:50:35;;;;;;;2.50;1.62;;;;;;;1.55;100.00;96869.91;4409104;32;20485;-72
2022/01/30 09:53:04;;;;;;;6.53;1.20;;;;;;;1.57;100.00;96894.31;4395451;32;20141;-74
2022/01/30 09:55:31;;;;;;;5.50;1.92;;;;;;;0.88;100.00;96798.16;4424909;32;20080;-72
2022/01/30 09:58:00;;;;;;;8.48;1.73;;;;;;;1.26;100.00;96857.56;4422084;32;20394;-72
2022/01/30 10:00:30;;;;;;;10.15;1.33;;;;;;;0.66;100.00;96725.75;4420899;32;20092;-72
2022/01/30 10:03:04;;;;;;;5.12;1.25;;;;;;;1.41;100.00;96848.22;4423978;32;20083;-73
2022/01/30 10:05:36;;;;;;;8.57;1.85;;;;;;;1.64;100.00;96886.97;4415105;32;20068;-74
2022/01/30 10:08:04;;;;;;;9.82;1.98;;;;;;;1.72;100.00;96902.47;4421354;32;20046;-72
2022/01/30 10:10:36;;;;;;;18.65;2.17;;;;;;;1.75;100.00;96867.50;4415792;32;20060;-71
2022/01/30 10:13:12;;;;;;;9.20;3.10;;;;;;;1.75;100.00;96848.91;4413417;32;20030;-72
2022/01/30 10:15:55;;;;;;;3.60;1.50;;;;;;;1.92;100.00;96861.34;4429737;32;20022;-71
2022/01/30 10:18:33;;;;;;;8.25;2.55;;;;;;;1.92;100.00;96861.34;4430866;32;20042;-73
2022/01/30 10:21:18;;;;;;;4.45;1.83;;;;;;;1.91;100.00;96841.94;4418695;32;20116;-72
2022/01/30 10:23:49;;;;;;;10.48;2.40;;;;;;;1.93;100.00;96860.28;4409928;32;20078;-73
2022/01/30 10:26:32;;;;;;;4.25;1.58;;;;;;;1.86;100.00;96920.72;4409506;32;20115;-74
2022/01/30 10:29:29;;;;;;;7.30;1.92;;;;;;;1.64;100.00;96815.34;4422910;32;20050;-72
2022/01/30 10:32:05;;;;;;;14.33;1.60;;;;;;;1.51;100.00;96799.81;4409486;32;20026;-73
2022/01/30 10:34:36;;;;;;;7.12;2.10;;;;;;;1.57;100.00;96788.22;4417762;32;20282;-71
2022/01/30 10:37:24;;;;;;;15.45;2.83;;;;;;;1.84;100.00;96898.94;4417203;32;20026;-73
2022/01/30 10:40:14;;;;;;;7.22;2.35;;;;;;;1.64;100.00;96879.00;4346649;33;20109;-74
2022/01/30 10:42:47;;;;;;;9.35;2.33;;;;;;;1.67;100.00;96875.87;4332857;33;20471;-72
2022/01/30 10:45:32;;;;;;;19.87;2.03;;;;;;;1.64;100.00;96905.53;4330591;33;20099;-73
2022/01/30 10:48:07;;;;;;;7.90;2.42;;;;;;;1.23;100.00;96937.56;4354124;33;20044;-74
2022/01/30 10:50:41;;;;;;;2.92;1.75;;;;;;;1.27;100.00;96842.44;4356400;32;20129;-74
2022/01/30 10:53:25;;;;;;;16.95;3.25;;;;;;;1.41;100.00;96825.13;4419995;32;20039;-71
2022/01/30 10:55:53;;;;;;;4.50;1.20;;;;;;;1.75;100.00;96875.44;4369308;32;20069;-71
2022/01/30 10:58:23;;;;;;;11.00;2.20;;;;;;;1.62;100.00;96907.66;4355632;32;20081;-74
2022/01/30 11:00:54;;;;;;;6.80;2.37;;;;;;;1.75;100.00;96864.84;4354780;32;20106;-74
2022/01/30 11:03:39;;;;;;;17.92;2.60;;;;;;;1.67;100.00;96820.16;4405063;32;20062;-72
2022/01/30 11:06:11;;;;;;;8.55;1.90;;;;;;;2.14;100.00;96911.78;4415596;32;20036;-76
2022/01/30 11:08:42;;;;;;;11.12;2.42;;;;;;;2.22;100.00;96906.03;4359409;32;20059;-72
2022/01/30 11:19:16;;;;;;;9.07;1.92;;;;;;;2.22;100.00;96984.88;4368980;32;20040;-73
2022/01/30 11:21:44;;;;;;;8.52;2.28;;;;;;;2.12;100.00;96949.19;4365124;32;20031;-77
2022/01/30 11:24:15;;;;;;;7.95;2.30;;;;;;;1.79;100.00;96879.22;4419801;32;20857;-73
2022/01/30 11:26:46;;;;;;;11.80;2.85;;;;;;;2.11;100.00;96931.66;4423965;32;20032;-74
2022/01/30 11:29:16;;;;;;;2.33;1.67;;;;;;;2.21;100.00;97000.00;4354914;33;20496;-73
2022/01/30 11:31:45;;;;;;;5.40;1.55;;;;;;;2.00;100.00;96972.38;4384501;32;20086;-74
2022/01/30 11:34:15;;;;;;;20.73;2.60;;;;;;;2.12;100.00;96957.16;4378277;32;20103;-74
2022/01/30 11:36:45;;;;;;;7.15;2.15;;;;;;;1.97;100.00;96879.97;4386598;32;20031;-72
2022/01/30 11:39:20;;;;;;;12.43;2.40;;;;;;;2.10;100.00;96938.00;4415317;32;20089;-72
2022/01/30 11:42:12;;;;;;;3.70;1.67;;;;;;;1.87;100.00;96887.78;4433347;32;20042;-74
2022/01/30 11:44:41;;;;;;;8.30;1.73;;;;;;;2.11;100.00;97053.78;4423014;32;20052;-76
2022/01/30 11:47:10;;;;;;;12.90;2.30;;;;;;;1.83;100.00;96926.50;4411403;32;20058;-73
2022/01/30 11:49:47;;;;;;;6.72;1.70;;;;;;;1.91;100.00;96963.22;4425751;32;20082;-73
2022/01/30 11:52:41;;;;;;;16.35;2.80;;;;;;;2.16;100.00;97047.75;4432249;32;20042;-73
2022/01/30 11:55:41;;;;;;;15.35;2.78;;;;;;;2.18;100.00;97011.91;4416294;32;20026;-74
2022/01/30 11:58:40;;;;;;;11.12;1.58;;;;;;;2.22;100.00;97011.44;4404500;32;20042;-74
2022/01/30 12:01:17;;;;;;;1.83;1.73;;;;;;;2.08;100.00;97042.84;4431471;32;20437;-74
2022/01/30 12:04:01;;;;;;;6.10;2.25;;;;;;;2.09;100.00;97013.41;4444029;32;20093;-74
2022/01/30 12:06:41;;;;;;;7.62;1.85;;;;;;;1.97;100.00;97031.28;4439365;32;20333;-73
2022/01/30 12:09:16;;;;;;;8.23;2.47;;;;;;;1.88;100.00;97064.56;4427638;32;20046;-77
2022/01/30 12:11:47;;;;;;;6.05;2.35;;;;;;;1.85;100.00;97038.50;4422652;32;20385;-73
2022/01/30 12:14:23;;;;;;;9.43;2.92;;;;;;;1.51;100.00;97001.38;4423497;32;20057;-73
2022/01/30 12:19:45;;;;;;;11.17;3.13;;;;;;;1.55;100.00;97076.78;4432903;32;20350;-72
2022/01/30 12:22:18;;;;;;;4.28;1.98;;;;;;;1.77;100.00;97080.34;4430834;32;20180;-76
2022/01/30 12:25:14;;;;;;;8.40;1.45;;;;;;;1.76;100.00;97089.34;4431999;32;20058;-73
2022/01/30 12:27:50;;;;;;;10.57;2.40;;;;;;;1.89;100.00;97060.88;4431725;32;20052;-72
2022/01/30 12:30:31;;;;;;;5.45;1.12;;;;;;;1.92;100.00;97098.34;4430795;32;20058;-73
2022/01/30 12:33:01;;;;;;;5.37;1.87;;;;;;;1.83;100.00;97099.00;4416038;32;20477;-72
2022/01/30 12:35:30;;;;;;;7.53;2.40;;;;;;;2.01;100.00;97088.16;4430018;32;20038;-73
2022/01/30 12:37:58;;;;;;;6.43;1.62;;;;;;;1.97;100.00;97079.06;4404556;32;20069;-74
2022/01/30 12:40:29;;;;;;;8.63;2.10;;;;;;;2.00;100.00;97078.56;4402395;32;20084;-72
2022/01/30 12:42:56;;;;;;;5.20;1.70;;;;;;;1.75;100.00;97050.56;4392737;32;20399;-74
2022/01/30 12:45:22;;;;;;;3.33;1.62;;;;;;;1.99;100.00;97140.66;4402957;32;20062;-72
2022/01/30 12:47:56;;;;;;;5.85;1.42;;;;;;;1.96;100.00;97114.59;4351176;33;20091;-75
2022/01/30 12:50:33;;;;;;;3.30;1.83;;;;;;;1.93;100.00;97104.47;4403468;32;20092;-73
2022/01/30 12:53:02;;;;;;;10.70;2.20;;;;;;;1.80;100.00;97180.72;4399898;32;20078;-73